sensor_id;sensor_type;location;lat;lon;timestamp;temperature;humidity
19898;DHT22;10111;50.814;4.572;2023-09-07T00:01:29;18.10;99.90
19898;DHT22;10111;50.814;4.572;2023-09-07T00:03:55;18.10;99.90
19898;DHT22;10111;50.814;4.572;2023-09-07T00:06:21;18.10;99.90
19898;DHT22;10111;50.814;4.572;2023-09-07T00:08:47;18.00;99.90
19898;DHT22;10111;50.814;4.572;2023-09-07T00:11:13;18.00;99.90
19898;DHT22;10111;50.814;4.572;2023-09-07T00:13:38;18.00;99.90
19898;DHT22;10111;50.814;4.572;2023-09-07T00:16:05;17.90;99.90
19898;DHT22;10111;50.814;4.572;2023-09-07T00:18:32;17.90;99.90
19898;DHT22;10111;50.814;4.572;2023-09-07T00:20:58;17.90;99.90
19898;DHT22;10111;50.814;4.572;2023-09-07T00:23:25;17.80;99.90
19898;DHT22;10111;50.814;4.572;2023-09-07T00:25:51;17.80;99.90
19898;DHT22;10111;50.814;4.572;2023-09-07T00:28:16;17.80;99.90
19898;DHT22;10111;50.814;4.572;2023-09-07T00:30:42;17.70;99.90
19898;DHT22;10111;50.814;4.572;2023-09-07T00:33:08;17.60;99.90
19898;DHT22;10111;50.814;4.572;2023-09-07T00:35:34;17.60;99.90
19898;DHT22;10111;50.814;4.572;2023-09-07T00:38:00;17.60;99.90
19898;DHT22;10111;50.814;4.572;2023-09-07T00:40:25;17.60;99.90
19898;DHT22;10111;50.814;4.572;2023-09-07T00:42:52;17.60;99.90
19898;DHT22;10111;50.814;4.572;2023-09-07T00:45:18;17.50;99.90
19898;DHT22;10111;50.814;4.572;2023-09-07T00:47:44;17.50;99.90
19898;DHT22;10111;50.814;4.572;2023-09-07T00:50:10;17.50;99.90
19898;DHT22;10111;50.814;4.572;2023-09-07T00:52:41;17.40;99.90
19898;DHT22;10111;50.814;4.572;2023-09-07T00:55:08;17.40;99.90
19898;DHT22;10111;50.814;4.572;2023-09-07T00:57:35;17.40;99.90
19898;DHT22;10111;50.814;4.572;2023-09-07T01:00:03;17.40;99.90
19898;DHT22;10111;50.814;4.572;2023-09-07T01:02:31;17.30;99.90
19898;DHT22;10111;50.814;4.572;2023-09-07T01:04:57;17.30;99.90
19898;DHT22;10111;50.814;4.572;2023-09-07T01:07:35;17.30;99.90
19898;DHT22;10111;50.814;4.572;2023-09-07T01:10:03;17.30;99.90
19898;DHT22;10111;50.814;4.572;2023-09-07T01:12:29;17.20;99.90
19898;DHT22;10111;50.814;4.572;2023-09-07T01:14:55;17.20;99.90
19898;DHT22;10111;50.814;4.572;2023-09-07T01:17:22;17.20;99.90
19898;DHT22;10111;50.814;4.572;2023-09-07T01:19:52;17.20;99.90
19898;DHT22;10111;50.814;4.572;2023-09-07T01:22:20;17.10;99.90
19898;DHT22;10111;50.814;4.572;2023-09-07T01:24:48;17.00;99.90
19898;DHT22;10111;50.814;4.572;2023-09-07T01:27:15;17.00;99.90
19898;DHT22;10111;50.814;4.572;2023-09-07T01:29:41;17.00;99.90
19898;DHT22;10111;50.814;4.572;2023-09-07T01:32:07;17.00;99.90
19898;DHT22;10111;50.814;4.572;2023-09-07T01:34:35;16.90;99.90
19898;DHT22;10111;50.814;4.572;2023-09-07T01:37:01;16.90;99.90
19898;DHT22;10111;50.814;4.572;2023-09-07T01:39:26;16.90;99.90
19898;DHT22;10111;50.814;4.572;2023-09-07T01:41:52;16.80;99.90
19898;DHT22;10111;50.814;4.572;2023-09-07T01:44:17;16.80;99.90
19898;DHT22;10111;50.814;4.572;2023-09-07T01:46:43;16.80;99.90
19898;DHT22;10111;50.814;4.572;2023-09-07T01:49:09;16.70;99.90
19898;DHT22;10111;50.814;4.572;2023-09-07T01:51:34;16.70;99.90
19898;DHT22;10111;50.814;4.572;2023-09-07T01:54:00;16.70;99.90
19898;DHT22;10111;50.814;4.572;2023-09-07T01:56:26;16.70;99.90
19898;DHT22;10111;50.814;4.572;2023-09-07T01:58:52;16.60;99.90
19898;DHT22;10111;50.814;4.572;2023-09-07T02:01:26;16.60;99.90
19898;DHT22;10111;50.814;4.572;2023-09-07T02:03:52;16.60;99.90
19898;DHT22;10111;50.814;4.572;2023-09-07T02:06:18;16.60;99.90
19898;DHT22;10111;50.814;4.572;2023-09-07T02:08:44;16.60;99.90
19898;DHT22;10111;50.814;4.572;2023-09-07T02:11:10;16.50;99.90
19898;DHT22;10111;50.814;4.572;2023-09-07T02:13:35;16.50;99.90
19898;DHT22;10111;50.814;4.572;2023-09-07T02:16:04;16.50;99.90
19898;DHT22;10111;50.814;4.572;2023-09-07T02:18:31;16.50;99.90
19898;DHT22;10111;50.814;4.572;2023-09-07T02:21:02;16.50;99.90
19898;DHT22;10111;50.814;4.572;2023-09-07T02:23:28;16.50;99.90
19898;DHT22;10111;50.814;4.572;2023-09-07T02:25:54;16.50;99.90
19898;DHT22;10111;50.814;4.572;2023-09-07T02:28:19;16.50;99.90
19898;DHT22;10111;50.814;4.572;2023-09-07T02:30:45;16.50;99.90
19898;DHT22;10111;50.814;4.572;2023-09-07T02:33:11;16.40;99.90
19898;DHT22;10111;50.814;4.572;2023-09-07T02:35:39;16.40;99.90
19898;DHT22;10111;50.814;4.572;2023-09-07T02:38:05;16.40;99.90
19898;DHT22;10111;50.814;4.572;2023-09-07T02:40:31;16.40;99.90
19898;DHT22;10111;50.814;4.572;2023-09-07T02:42:56;16.40;99.90
19898;DHT22;10111;50.814;4.572;2023-09-07T02:45:22;16.30;99.90
19898;DHT22;10111;50.814;4.572;2023-09-07T02:47:47;16.30;99.90
19898;DHT22;10111;50.814;4.572;2023-09-07T02:50:16;16.20;99.90
19898;DHT22;10111;50.814;4.572;2023-09-07T02:52:43;16.20;99.90
19898;DHT22;10111;50.814;4.572;2023-09-07T02:55:09;16.10;99.90
19898;DHT22;10111;50.814;4.572;2023-09-07T02:57:35;16.10;99.90
19898;DHT22;10111;50.814;4.572;2023-09-07T03:00:01;16.10;99.90
19898;DHT22;10111;50.814;4.572;2023-09-07T03:02:34;16.10;99.90
19898;DHT22;10111;50.814;4.572;2023-09-07T03:05:01;16.10;99.90
19898;DHT22;10111;50.814;4.572;2023-09-07T03:07:29;16.10;99.90
19898;DHT22;10111;50.814;4.572;2023-09-07T03:09:55;16.10;99.90
19898;DHT22;10111;50.814;4.572;2023-09-07T03:12:21;16.10;99.90
19898;DHT22;10111;50.814;4.572;2023-09-07T03:14:47;16.10;99.90
19898;DHT22;10111;50.814;4.572;2023-09-07T03:17:14;16.10;99.90
19898;DHT22;10111;50.814;4.572;2023-09-07T03:19:41;16.10;99.90
19898;DHT22;10111;50.814;4.572;2023-09-07T03:22:07;16.10;99.90
19898;DHT22;10111;50.814;4.572;2023-09-07T03:24:33;16.10;99.90
19898;DHT22;10111;50.814;4.572;2023-09-07T03:26:59;16.10;99.90
19898;DHT22;10111;50.814;4.572;2023-09-07T03:29:25;16.10;99.90
19898;DHT22;10111;50.814;4.572;2023-09-07T03:31:50;16.00;99.90
19898;DHT22;10111;50.814;4.572;2023-09-07T03:34:16;16.00;99.90
19898;DHT22;10111;50.814;4.572;2023-09-07T03:36:41;16.00;99.90
19898;DHT22;10111;50.814;4.572;2023-09-07T03:39:07;16.00;99.90
19898;DHT22;10111;50.814;4.572;2023-09-07T03:41:34;16.00;99.90
19898;DHT22;10111;50.814;4.572;2023-09-07T03:44:00;16.00;99.90
19898;DHT22;10111;50.814;4.572;2023-09-07T03:46:26;16.00;99.90
19898;DHT22;10111;50.814;4.572;2023-09-07T03:48:52;15.90;99.90
19898;DHT22;10111;50.814;4.572;2023-09-07T03:51:18;15.90;99.90
19898;DHT22;10111;50.814;4.572;2023-09-07T03:53:43;15.90;99.90
19898;DHT22;10111;50.814;4.572;2023-09-07T03:56:09;15.80;99.90
19898;DHT22;10111;50.814;4.572;2023-09-07T03:58:35;15.80;99.90
19898;DHT22;10111;50.814;4.572;2023-09-07T04:01:00;15.80;99.90
19898;DHT22;10111;50.814;4.572;2023-09-07T04:03:26;15.80;99.90
19898;DHT22;10111;50.814;4.572;2023-09-07T04:05:52;15.70;99.90
19898;DHT22;10111;50.814;4.572;2023-09-07T04:08:18;15.70;99.90
19898;DHT22;10111;50.814;4.572;2023-09-07T04:10:44;15.70;99.90
19898;DHT22;10111;50.814;4.572;2023-09-07T04:13:09;15.70;99.90
19898;DHT22;10111;50.814;4.572;2023-09-07T04:15:42;15.70;99.90
19898;DHT22;10111;50.814;4.572;2023-09-07T04:18:09;15.70;99.90
19898;DHT22;10111;50.814;4.572;2023-09-07T04:20:38;15.70;99.90
19898;DHT22;10111;50.814;4.572;2023-09-07T04:23:04;15.70;99.90
19898;DHT22;10111;50.814;4.572;2023-09-07T04:25:30;15.60;99.90
19898;DHT22;10111;50.814;4.572;2023-09-07T04:27:55;15.60;99.90
19898;DHT22;10111;50.814;4.572;2023-09-07T04:30:22;15.50;99.90
19898;DHT22;10111;50.814;4.572;2023-09-07T04:32:48;15.50;99.90
19898;DHT22;10111;50.814;4.572;2023-09-07T04:35:13;15.50;99.90
19898;DHT22;10111;50.814;4.572;2023-09-07T04:37:42;15.50;99.90
19898;DHT22;10111;50.814;4.572;2023-09-07T04:40:09;15.40;99.90
19898;DHT22;10111;50.814;4.572;2023-09-07T04:42:34;15.40;99.90
19898;DHT22;10111;50.814;4.572;2023-09-07T04:45:00;15.40;99.90
19898;DHT22;10111;50.814;4.572;2023-09-07T04:47:26;15.40;99.90
19898;DHT22;10111;50.814;4.572;2023-09-07T04:49:51;15.50;99.90
19898;DHT22;10111;50.814;4.572;2023-09-07T04:52:17;15.40;99.90
19898;DHT22;10111;50.814;4.572;2023-09-07T04:54:43;15.50;99.90
19898;DHT22;10111;50.814;4.572;2023-09-07T04:57:09;15.40;99.90
19898;DHT22;10111;50.814;4.572;2023-09-07T04:59:35;15.50;99.90
19898;DHT22;10111;50.814;4.572;2023-09-07T05:02:00;15.50;99.90
19898;DHT22;10111;50.814;4.572;2023-09-07T05:04:29;15.40;99.90
19898;DHT22;10111;50.814;4.572;2023-09-07T05:06:56;15.40;99.90
19898;DHT22;10111;50.814;4.572;2023-09-07T05:09:22;15.40;99.90
19898;DHT22;10111;50.814;4.572;2023-09-07T05:11:49;15.40;99.90
19898;DHT22;10111;50.814;4.572;2023-09-07T05:14:15;15.50;99.90
19898;DHT22;10111;50.814;4.572;2023-09-07T05:16:43;15.40;99.90
19898;DHT22;10111;50.814;4.572;2023-09-07T05:19:09;15.50;99.90
19898;DHT22;10111;50.814;4.572;2023-09-07T05:21:35;15.50;99.90
19898;DHT22;10111;50.814;4.572;2023-09-07T05:24:01;15.50;99.90
19898;DHT22;10111;50.814;4.572;2023-09-07T05:26:26;15.50;99.90
19898;DHT22;10111;50.814;4.572;2023-09-07T05:28:53;15.50;99.90
19898;DHT22;10111;50.814;4.572;2023-09-07T05:31:19;15.50;99.90
19898;DHT22;10111;50.814;4.572;2023-09-07T05:33:45;15.50;99.90
19898;DHT22;10111;50.814;4.572;2023-09-07T05:36:10;15.50;99.90
19898;DHT22;10111;50.814;4.572;2023-09-07T05:38:36;15.60;99.90
19898;DHT22;10111;50.814;4.572;2023-09-07T05:41:03;15.60;99.90
19898;DHT22;10111;50.814;4.572;2023-09-07T05:43:28;15.50;99.90
19898;DHT22;10111;50.814;4.572;2023-09-07T05:45:54;15.60;99.90
19898;DHT22;10111;50.814;4.572;2023-09-07T05:48:20;15.60;99.90
19898;DHT22;10111;50.814;4.572;2023-09-07T05:50:45;15.70;99.90
19898;DHT22;10111;50.814;4.572;2023-09-07T05:53:11;15.70;99.90
19898;DHT22;10111;50.814;4.572;2023-09-07T05:55:37;15.90;99.90
19898;DHT22;10111;50.814;4.572;2023-09-07T05:58:07;15.90;99.90
19898;DHT22;10111;50.814;4.572;2023-09-07T06:00:34;16.10;99.90
19898;DHT22;10111;50.814;4.572;2023-09-07T06:03:00;16.20;99.90
19898;DHT22;10111;50.814;4.572;2023-09-07T06:05:26;16.30;99.90
19898;DHT22;10111;50.814;4.572;2023-09-07T06:07:52;16.40;99.90
19898;DHT22;10111;50.814;4.572;2023-09-07T06:10:18;16.60;99.90
19898;DHT22;10111;50.814;4.572;2023-09-07T06:12:44;16.70;99.90
19898;DHT22;10111;50.814;4.572;2023-09-07T06:15:10;16.80;99.90
19898;DHT22;10111;50.814;4.572;2023-09-07T06:17:36;17.00;99.90
19898;DHT22;10111;50.814;4.572;2023-09-07T06:20:02;17.10;99.90
19898;DHT22;10111;50.814;4.572;2023-09-07T06:22:28;17.20;99.90
19898;DHT22;10111;50.814;4.572;2023-09-07T06:24:54;17.40;99.90
19898;DHT22;10111;50.814;4.572;2023-09-07T06:27:19;17.50;99.90
19898;DHT22;10111;50.814;4.572;2023-09-07T06:29:45;17.60;99.90
19898;DHT22;10111;50.814;4.572;2023-09-07T06:32:11;17.70;99.90
19898;DHT22;10111;50.814;4.572;2023-09-07T06:34:37;17.90;99.90
19898;DHT22;10111;50.814;4.572;2023-09-07T06:37:03;18.00;99.90
19898;DHT22;10111;50.814;4.572;2023-09-07T06:39:28;18.20;99.90
19898;DHT22;10111;50.814;4.572;2023-09-07T06:41:54;18.30;99.90
19898;DHT22;10111;50.814;4.572;2023-09-07T06:44:20;18.50;99.90
19898;DHT22;10111;50.814;4.572;2023-09-07T06:46:45;18.60;99.90
19898;DHT22;10111;50.814;4.572;2023-09-07T06:49:12;18.80;99.90
19898;DHT22;10111;50.814;4.572;2023-09-07T06:51:37;18.90;99.90
19898;DHT22;10111;50.814;4.572;2023-09-07T06:54:03;19.00;99.90
19898;DHT22;10111;50.814;4.572;2023-09-07T06:56:29;19.10;99.90
19898;DHT22;10111;50.814;4.572;2023-09-07T06:58:56;19.10;99.90
19898;DHT22;10111;50.814;4.572;2023-09-07T07:01:22;19.20;99.90
19898;DHT22;10111;50.814;4.572;2023-09-07T07:03:48;19.40;99.90
19898;DHT22;10111;50.814;4.572;2023-09-07T07:06:14;19.70;99.90
19898;DHT22;10111;50.814;4.572;2023-09-07T07:08:40;19.80;99.90
19898;DHT22;10111;50.814;4.572;2023-09-07T07:11:05;20.00;99.90
19898;DHT22;10111;50.814;4.572;2023-09-07T07:13:31;20.20;99.90
19898;DHT22;10111;50.814;4.572;2023-09-07T07:15:57;20.30;99.90
19898;DHT22;10111;50.814;4.572;2023-09-07T07:18:22;20.50;99.90
19898;DHT22;10111;50.814;4.572;2023-09-07T07:20:48;20.60;99.90
19898;DHT22;10111;50.814;4.572;2023-09-07T07:23:14;20.80;99.90
19898;DHT22;10111;50.814;4.572;2023-09-07T07:25:40;20.90;99.90
19898;DHT22;10111;50.814;4.572;2023-09-07T07:28:06;21.00;99.90
19898;DHT22;10111;50.814;4.572;2023-09-07T07:30:33;21.10;99.90
19898;DHT22;10111;50.814;4.572;2023-09-07T07:32:59;21.30;99.90
19898;DHT22;10111;50.814;4.572;2023-09-07T07:35:25;21.40;99.90
19898;DHT22;10111;50.814;4.572;2023-09-07T07:37:51;21.60;99.90
19898;DHT22;10111;50.814;4.572;2023-09-07T07:40:17;21.70;99.90
19898;DHT22;10111;50.814;4.572;2023-09-07T07:42:46;22.00;99.90
19898;DHT22;10111;50.814;4.572;2023-09-07T07:45:12;22.10;99.90
19898;DHT22;10111;50.814;4.572;2023-09-07T07:47:39;22.20;99.90
19898;DHT22;10111;50.814;4.572;2023-09-07T07:50:06;22.30;99.90
19898;DHT22;10111;50.814;4.572;2023-09-07T07:52:31;22.40;99.90
19898;DHT22;10111;50.814;4.572;2023-09-07T07:54:57;22.30;99.90
19898;DHT22;10111;50.814;4.572;2023-09-07T07:57:23;22.40;99.90
19898;DHT22;10111;50.814;4.572;2023-09-07T07:59:48;22.30;99.90
19898;DHT22;10111;50.814;4.572;2023-09-07T08:02:14;22.40;99.90
19898;DHT22;10111;50.814;4.572;2023-09-07T08:04:40;22.80;99.90
19898;DHT22;10111;50.814;4.572;2023-09-07T08:07:06;23.00;99.90
19898;DHT22;10111;50.814;4.572;2023-09-07T08:09:34;23.20;99.90
19898;DHT22;10111;50.814;4.572;2023-09-07T08:11:59;23.20;99.90
19898;DHT22;10111;50.814;4.572;2023-09-07T08:14:29;23.10;99.90
19898;DHT22;10111;50.814;4.572;2023-09-07T08:16:55;23.20;99.90
19898;DHT22;10111;50.814;4.572;2023-09-07T08:19:20;23.40;99.90
19898;DHT22;10111;50.814;4.572;2023-09-07T08:21:46;23.40;99.90
19898;DHT22;10111;50.814;4.572;2023-09-07T08:24:13;23.70;99.90
19898;DHT22;10111;50.814;4.572;2023-09-07T08:26:38;23.80;99.90
19898;DHT22;10111;50.814;4.572;2023-09-07T08:29:04;24.00;99.90
19898;DHT22;10111;50.814;4.572;2023-09-07T08:31:34;24.10;99.90
19898;DHT22;10111;50.814;4.572;2023-09-07T08:34:07;24.30;99.90
19898;DHT22;10111;50.814;4.572;2023-09-07T08:36:35;24.40;99.90
19898;DHT22;10111;50.814;4.572;2023-09-07T08:39:01;24.50;99.90
19898;DHT22;10111;50.814;4.572;2023-09-07T08:41:32;24.40;99.90
19898;DHT22;10111;50.814;4.572;2023-09-07T08:44:04;24.20;99.90
19898;DHT22;10111;50.814;4.572;2023-09-07T08:46:31;24.20;99.90
19898;DHT22;10111;50.814;4.572;2023-09-07T08:49:00;24.30;99.90
19898;DHT22;10111;50.814;4.572;2023-09-07T08:51:29;24.30;99.90
19898;DHT22;10111;50.814;4.572;2023-09-07T08:54:00;24.50;99.90
19898;DHT22;10111;50.814;4.572;2023-09-07T08:56:26;24.80;99.90
19898;DHT22;10111;50.814;4.572;2023-09-07T08:58:51;25.00;99.90
19898;DHT22;10111;50.814;4.572;2023-09-07T09:01:17;25.10;99.90
19898;DHT22;10111;50.814;4.572;2023-09-07T09:03:44;25.30;99.90
19898;DHT22;10111;50.814;4.572;2023-09-07T09:06:11;25.30;99.90
19898;DHT22;10111;50.814;4.572;2023-09-07T09:11:14;25.40;99.90
19898;DHT22;10111;50.814;4.572;2023-09-07T09:13:40;25.50;99.90
19898;DHT22;10111;50.814;4.572;2023-09-07T09:16:06;25.60;99.90
19898;DHT22;10111;50.814;4.572;2023-09-07T09:18:32;25.60;99.90
19898;DHT22;10111;50.814;4.572;2023-09-07T09:20:58;25.60;99.90
19898;DHT22;10111;50.814;4.572;2023-09-07T09:23:34;25.70;99.90
19898;DHT22;10111;50.814;4.572;2023-09-07T09:26:01;25.90;99.90
19898;DHT22;10111;50.814;4.572;2023-09-07T09:28:27;25.80;99.90
19898;DHT22;10111;50.814;4.572;2023-09-07T09:30:53;25.90;99.90
19898;DHT22;10111;50.814;4.572;2023-09-07T09:33:20;26.00;99.90
19898;DHT22;10111;50.814;4.572;2023-09-07T09:35:47;26.20;99.90
19898;DHT22;10111;50.814;4.572;2023-09-07T09:38:13;25.90;99.90
19898;DHT22;10111;50.814;4.572;2023-09-07T09:40:40;26.00;99.90
19898;DHT22;10111;50.814;4.572;2023-09-07T09:43:06;25.90;99.90
19898;DHT22;10111;50.814;4.572;2023-09-07T09:45:32;25.90;99.90
19898;DHT22;10111;50.814;4.572;2023-09-07T09:47:58;26.00;99.90
19898;DHT22;10111;50.814;4.572;2023-09-07T09:50:27;26.10;99.90
19898;DHT22;10111;50.814;4.572;2023-09-07T09:52:58;26.10;99.90
19898;DHT22;10111;50.814;4.572;2023-09-07T09:55:24;25.90;99.90
19898;DHT22;10111;50.814;4.572;2023-09-07T09:57:50;25.90;99.90
19898;DHT22;10111;50.814;4.572;2023-09-07T10:00:16;26.00;99.90
19898;DHT22;10111;50.814;4.572;2023-09-07T10:03:11;26.20;99.90
19898;DHT22;10111;50.814;4.572;2023-09-07T10:05:38;26.20;99.90
19898;DHT22;10111;50.814;4.572;2023-09-07T10:08:11;26.20;99.90
19898;DHT22;10111;50.814;4.572;2023-09-07T10:10:37;26.20;99.90
19898;DHT22;10111;50.814;4.572;2023-09-07T10:13:04;26.30;99.90
19898;DHT22;10111;50.814;4.572;2023-09-07T10:15:31;26.20;99.90
19898;DHT22;10111;50.814;4.572;2023-09-07T10:18:13;26.20;99.90
19898;DHT22;10111;50.814;4.572;2023-09-07T10:20:54;26.20;99.90
19898;DHT22;10111;50.814;4.572;2023-09-07T10:23:22;26.20;99.90
19898;DHT22;10111;50.814;4.572;2023-09-07T10:25:52;26.10;99.90
19898;DHT22;10111;50.814;4.572;2023-09-07T10:28:25;26.10;99.90
19898;DHT22;10111;50.814;4.572;2023-09-07T10:33:26;26.10;99.90
19898;DHT22;10111;50.814;4.572;2023-09-07T10:35:52;26.10;99.90
19898;DHT22;10111;50.814;4.572;2023-09-07T10:38:18;26.20;99.90
19898;DHT22;10111;50.814;4.572;2023-09-07T10:40:44;26.20;99.90
19898;DHT22;10111;50.814;4.572;2023-09-07T10:43:13;26.40;99.90
19898;DHT22;10111;50.814;4.572;2023-09-07T10:45:38;26.40;99.90
19898;DHT22;10111;50.814;4.572;2023-09-07T10:48:05;26.50;99.90
19898;DHT22;10111;50.814;4.572;2023-09-07T10:50:42;26.60;99.90
19898;DHT22;10111;50.814;4.572;2023-09-07T10:53:08;26.60;99.90
19898;DHT22;10111;50.814;4.572;2023-09-07T10:55:37;26.50;99.90
19898;DHT22;10111;50.814;4.572;2023-09-07T10:58:06;26.50;99.90
19898;DHT22;10111;50.814;4.572;2023-09-07T11:00:34;26.60;99.90
19898;DHT22;10111;50.814;4.572;2023-09-07T11:03:07;26.60;99.90
19898;DHT22;10111;50.814;4.572;2023-09-07T11:05:34;26.60;99.90
19898;DHT22;10111;50.814;4.572;2023-09-07T11:08:03;26.60;99.90
19898;DHT22;10111;50.814;4.572;2023-09-07T11:10:32;26.70;99.90
19898;DHT22;10111;50.814;4.572;2023-09-07T11:13:02;26.80;99.90
19898;DHT22;10111;50.814;4.572;2023-09-07T11:15:30;26.90;99.90
19898;DHT22;10111;50.814;4.572;2023-09-07T11:17:56;27.10;99.90
19898;DHT22;10111;50.814;4.572;2023-09-07T11:20:23;27.20;99.90
19898;DHT22;10111;50.814;4.572;2023-09-07T11:22:49;27.20;99.90
19898;DHT22;10111;50.814;4.572;2023-09-07T11:25:15;27.20;99.90
19898;DHT22;10111;50.814;4.572;2023-09-07T11:27:41;27.30;99.90
19898;DHT22;10111;50.814;4.572;2023-09-07T11:30:07;27.30;99.90
19898;DHT22;10111;50.814;4.572;2023-09-07T11:32:37;27.30;99.90
19898;DHT22;10111;50.814;4.572;2023-09-07T11:35:04;27.20;99.90
19898;DHT22;10111;50.814;4.572;2023-09-07T11:37:33;27.00;99.90
19898;DHT22;10111;50.814;4.572;2023-09-07T11:40:00;27.00;99.90
19898;DHT22;10111;50.814;4.572;2023-09-07T11:42:26;26.90;99.90
19898;DHT22;10111;50.814;4.572;2023-09-07T11:44:51;27.00;99.90
19898;DHT22;10111;50.814;4.572;2023-09-07T11:47:17;27.10;99.90
19898;DHT22;10111;50.814;4.572;2023-09-07T11:49:43;27.30;99.90
19898;DHT22;10111;50.814;4.572;2023-09-07T11:52:08;27.40;99.90
19898;DHT22;10111;50.814;4.572;2023-09-07T11:54:34;27.30;99.90
19898;DHT22;10111;50.814;4.572;2023-09-07T11:57:00;27.30;99.90
19898;DHT22;10111;50.814;4.572;2023-09-07T11:59:25;27.40;99.90
19898;DHT22;10111;50.814;4.572;2023-09-07T12:01:51;27.50;99.90
19898;DHT22;10111;50.814;4.572;2023-09-07T12:04:17;27.60;99.90
19898;DHT22;10111;50.814;4.572;2023-09-07T12:06:43;27.60;99.90
19898;DHT22;10111;50.814;4.572;2023-09-07T12:09:08;27.70;99.90
19898;DHT22;10111;50.814;4.572;2023-09-07T12:11:37;27.70;99.90
19898;DHT22;10111;50.814;4.572;2023-09-07T12:14:02;27.80;99.90
19898;DHT22;10111;50.814;4.572;2023-09-07T12:16:29;27.80;99.90
19898;DHT22;10111;50.814;4.572;2023-09-07T12:18:55;27.70;99.90
19898;DHT22;10111;50.814;4.572;2023-09-07T12:21:20;27.60;99.90
19898;DHT22;10111;50.814;4.572;2023-09-07T12:23:46;27.50;99.90
19898;DHT22;10111;50.814;4.572;2023-09-07T12:26:13;27.50;99.90
19898;DHT22;10111;50.814;4.572;2023-09-07T12:28:40;27.70;99.90
19898;DHT22;10111;50.814;4.572;2023-09-07T12:31:05;27.80;99.90
19898;DHT22;10111;50.814;4.572;2023-09-07T12:33:31;28.00;99.90
19898;DHT22;10111;50.814;4.572;2023-09-07T12:35:58;27.90;99.90
19898;DHT22;10111;50.814;4.572;2023-09-07T12:38:24;27.90;99.90
19898;DHT22;10111;50.814;4.572;2023-09-07T12:40:54;27.90;99.90
19898;DHT22;10111;50.814;4.572;2023-09-07T12:43:19;27.90;99.90
19898;DHT22;10111;50.814;4.572;2023-09-07T12:45:48;27.90;99.90
19898;DHT22;10111;50.814;4.572;2023-09-07T12:48:14;28.00;99.90
19898;DHT22;10111;50.814;4.572;2023-09-07T12:50:39;28.00;99.90
19898;DHT22;10111;50.814;4.572;2023-09-07T12:53:06;27.90;99.90
19898;DHT22;10111;50.814;4.572;2023-09-07T12:55:34;28.00;99.90
19898;DHT22;10111;50.814;4.572;2023-09-07T12:58:00;28.10;99.90
19898;DHT22;10111;50.814;4.572;2023-09-07T13:00:26;28.20;99.90
19898;DHT22;10111;50.814;4.572;2023-09-07T13:02:52;28.30;99.90
19898;DHT22;10111;50.814;4.572;2023-09-07T13:05:19;28.10;99.90
19898;DHT22;10111;50.814;4.572;2023-09-07T13:07:45;28.10;99.90
19898;DHT22;10111;50.814;4.572;2023-09-07T13:10:11;28.20;99.90
19898;DHT22;10111;50.814;4.572;2023-09-07T13:12:37;28.20;99.90
19898;DHT22;10111;50.814;4.572;2023-09-07T13:15:04;28.20;99.90
19898;DHT22;10111;50.814;4.572;2023-09-07T13:17:29;28.20;99.90
19898;DHT22;10111;50.814;4.572;2023-09-07T13:19:55;28.30;99.90
19898;DHT22;10111;50.814;4.572;2023-09-07T13:22:21;28.20;99.90
19898;DHT22;10111;50.814;4.572;2023-09-07T13:24:47;28.30;99.90
19898;DHT22;10111;50.814;4.572;2023-09-07T13:27:12;28.40;99.90
19898;DHT22;10111;50.814;4.572;2023-09-07T13:29:38;28.40;99.90
19898;DHT22;10111;50.814;4.572;2023-09-07T13:32:04;28.30;99.90
19898;DHT22;10111;50.814;4.572;2023-09-07T13:34:30;28.30;99.90
19898;DHT22;10111;50.814;4.572;2023-09-07T13:36:55;28.30;99.90
19898;DHT22;10111;50.814;4.572;2023-09-07T13:39:22;28.40;99.90
19898;DHT22;10111;50.814;4.572;2023-09-07T13:41:48;28.40;99.90
19898;DHT22;10111;50.814;4.572;2023-09-07T13:44:14;28.40;99.90
19898;DHT22;10111;50.814;4.572;2023-09-07T13:46:40;28.40;99.90
19898;DHT22;10111;50.814;4.572;2023-09-07T13:49:06;28.30;99.90
19898;DHT22;10111;50.814;4.572;2023-09-07T13:51:32;28.40;99.90
19898;DHT22;10111;50.814;4.572;2023-09-07T13:54:07;28.60;99.90
19898;DHT22;10111;50.814;4.572;2023-09-07T13:56:33;28.60;99.90
19898;DHT22;10111;50.814;4.572;2023-09-07T13:58:58;28.60;99.90
19898;DHT22;10111;50.814;4.572;2023-09-07T14:01:24;28.60;99.90
19898;DHT22;10111;50.814;4.572;2023-09-07T14:03:50;28.50;99.90
19898;DHT22;10111;50.814;4.572;2023-09-07T14:06:16;28.40;99.90
19898;DHT22;10111;50.814;4.572;2023-09-07T14:08:43;28.40;99.90
19898;DHT22;10111;50.814;4.572;2023-09-07T14:11:09;28.50;99.90
19898;DHT22;10111;50.814;4.572;2023-09-07T14:13:35;28.50;99.90
19898;DHT22;10111;50.814;4.572;2023-09-07T14:16:01;28.50;99.90
19898;DHT22;10111;50.814;4.572;2023-09-07T14:18:27;28.50;99.90
19898;DHT22;10111;50.814;4.572;2023-09-07T14:20:53;28.50;99.90
19898;DHT22;10111;50.814;4.572;2023-09-07T14:23:23;28.50;99.90
19898;DHT22;10111;50.814;4.572;2023-09-07T14:25:53;28.50;99.90
19898;DHT22;10111;50.814;4.572;2023-09-07T14:28:19;28.50;99.90
19898;DHT22;10111;50.814;4.572;2023-09-07T14:30:45;28.50;99.90
19898;DHT22;10111;50.814;4.572;2023-09-07T14:33:11;28.40;99.90
19898;DHT22;10111;50.814;4.572;2023-09-07T14:35:37;28.50;99.90
19898;DHT22;10111;50.814;4.572;2023-09-07T14:38:02;28.50;99.90
19898;DHT22;10111;50.814;4.572;2023-09-07T14:40:28;28.50;99.90
19898;DHT22;10111;50.814;4.572;2023-09-07T14:42:54;28.50;99.90
19898;DHT22;10111;50.814;4.572;2023-09-07T14:45:23;28.50;99.90
19898;DHT22;10111;50.814;4.572;2023-09-07T14:47:50;28.50;99.90
19898;DHT22;10111;50.814;4.572;2023-09-07T14:50:16;28.50;99.90
19898;DHT22;10111;50.814;4.572;2023-09-07T14:52:41;28.60;99.90
19898;DHT22;10111;50.814;4.572;2023-09-07T14:55:09;28.60;99.90
19898;DHT22;10111;50.814;4.572;2023-09-07T14:57:35;28.60;99.90
19898;DHT22;10111;50.814;4.572;2023-09-07T15:00:00;28.50;99.90
19898;DHT22;10111;50.814;4.572;2023-09-07T15:02:26;28.60;99.90
19898;DHT22;10111;50.814;4.572;2023-09-07T15:04:52;28.50;99.90
19898;DHT22;10111;50.814;4.572;2023-09-07T15:07:17;28.50;99.90
19898;DHT22;10111;50.814;4.572;2023-09-07T15:09:44;28.50;99.90
19898;DHT22;10111;50.814;4.572;2023-09-07T15:12:09;28.40;99.90
19898;DHT22;10111;50.814;4.572;2023-09-07T15:14:36;28.40;99.90
19898;DHT22;10111;50.814;4.572;2023-09-07T15:17:02;28.50;99.90
19898;DHT22;10111;50.814;4.572;2023-09-07T15:19:28;28.50;99.90
19898;DHT22;10111;50.814;4.572;2023-09-07T15:21:55;28.50;99.90
19898;DHT22;10111;50.814;4.572;2023-09-07T15:24:21;28.50;99.90
19898;DHT22;10111;50.814;4.572;2023-09-07T15:26:47;28.50;99.90
19898;DHT22;10111;50.814;4.572;2023-09-07T15:29:13;28.50;99.90
19898;DHT22;10111;50.814;4.572;2023-09-07T15:31:39;28.50;99.90